Time,TemperatureF,DewpointF,PressureIn,WindDirection,WindDirectionDegrees,WindSpeedMPH,WindSpeedGustMPH,Humidity,HourlyPrecipIn,Conditions,Clouds,dailyrainin,SolarRadiationWatts/m^2,SoftwareType,DateUTC
2013-06-18 00:22:00,64.0,51.0,-100.00,North,5,8.0,25.0,62,0.00,,,0.09,141.000000,,2013-06-18 00:22:00,
2013-06-18 00:33:00,64.0,51.0,-100.00,North,5,8.0,25.0,62,0.00,,,0.09,141.000000,,2013-06-18 00:33:00,
2013-06-18 00:43:00,64.0,51.0,-100.00,North,5,8.0,25.0,62,0.00,,,0.09,141.000000,,2013-06-18 00:43:00,
2013-06-18 00:52:00,64.0,51.0,-100.00,North,5,8.0,25.0,62,0.00,,,0.09,141.000000,,2013-06-18 00:52:00,
2013-06-18 01:23:00,61.0,50.0,-100.00,NW,316,7.0,24.0,68,0.00,,,0.09,16.000000,,2013-06-18 01:23:00,
2013-06-18 01:34:00,61.0,50.0,-100.00,NW,316,7.0,24.0,68,0.00,,,0.09,16.000000,,2013-06-18 01:34:00,
2013-06-18 01:44:00,61.0,50.0,-100.00,NW,316,7.0,24.0,68,0.00,,,0.09,16.000000,,2013-06-18 01:44:00,
2013-06-18 01:53:00,61.0,50.0,-100.00,NW,316,7.0,24.0,68,0.00,,,0.09,16.000000,,2013-06-18 01:53:00,
2013-06-18 02:22:00,60.0,52.0,-100.00,WNW,288,7.0,13.0,75,0.00,,,0.09,17.000000,,2013-06-18 02:22:00,
2013-06-18 02:34:00,60.0,52.0,-100.00,WNW,288,7.0,13.0,75,0.00,,,0.09,17.000000,,2013-06-18 02:34:00,
2013-06-18 02:43:00,60.0,52.0,-100.00,WNW,288,7.0,13.0,75,0.00,,,0.09,17.000000,,2013-06-18 02:43:00,
2013-06-18 02:53:00,60.0,52.0,-100.00,WNW,288,7.0,13.0,75,0.00,,,0.09,17.000000,,2013-06-18 02:53:00,
2013-06-18 03:23:00,60.0,51.0,-100.00,WSW,242,6.0,14.0,73,0.00,,,0.09,10.000000,,2013-06-18 03:23:00,
2013-06-18 03:34:00,60.0,51.0,-100.00,WSW,242,6.0,14.0,73,0.00,,,0.09,10.000000,,2013-06-18 03:34:00,
2013-06-18 03:43:00,60.0,51.0,-100.00,WSW,242,6.0,14.0,73,0.00,,,0.09,10.000000,,2013-06-18 03:43:00,
2013-06-18 03:53:00,60.0,51.0,-100.00,WSW,242,6.0,14.0,73,0.00,,,0.09,10.000000,,2013-06-18 03:53:00,
2013-06-18 04:23:00,60.0,52.0,-100.00,West,274,6.0,12.0,76,0.00,,,0.09,0.000000,,2013-06-18 04:23:00,
2013-06-18 04:34:00,60.0,52.0,-100.00,West,274,6.0,12.0,76,0.00,,,0.09,0.000000,,2013-06-18 04:34:00,
2013-06-18 04:43:00,60.0,52.0,-100.00,West,274,6.0,12.0,76,0.00,,,0.09,0.000000,,2013-06-18 04:43:00,
2013-06-18 04:53:00,60.0,52.0,-100.00,West,274,6.0,12.0,76,0.00,,,0.09,0.000000,,2013-06-18 04:53:00,
2013-06-18 05:22:00,60.0,50.0,-100.00,West,275,7.0,12.0,70,0.00,,,0.09,0.000000,,2013-06-18 05:22:00,
2013-06-18 05:33:00,60.0,50.0,-100.00,West,275,7.0,12.0,70,0.00,,,0.09,0.000000,,2013-06-18 05:33:00,
2013-06-18 05:43:00,60.0,50.0,-100.00,West,275,7.0,12.0,70,0.00,,,0.09,0.000000,,2013-06-18 05:43:00,
2013-06-18 05:53:00,60.0,50.0,-100.00,West,275,7.0,12.0,70,0.00,,,0.09,0.000000,,2013-06-18 05:53:00,
2013-06-18 06:23:00,58.0,51.0,-100.00,West,271,4.0,12.0,77,0.00,,,0.09,0.000000,,2013-06-18 06:23:00,
2013-06-18 06:32:00,58.0,51.0,-100.00,West,271,4.0,12.0,77,0.00,,,0.09,0.000000,,2013-06-18 06:32:00,
2013-06-18 06:43:00,58.0,51.0,-100.00,West,271,4.0,12.0,77,0.00,,,0.09,0.000000,,2013-06-18 06:43:00,
2013-06-18 06:52:00,58.0,51.0,-100.00,West,271,4.0,12.0,77,0.00,,,0.09,0.000000,,2013-06-18 06:52:00,
2013-06-18 07:22:00,57.0,50.0,-100.00,North,353,5.0,9.0,76,0.00,,,0.09,0.000000,,2013-06-18 07:22:00,
2013-06-18 07:33:00,57.0,50.0,-100.00,North,353,5.0,9.0,76,0.00,,,0.09,0.000000,,2013-06-18 07:33:00,
2013-06-18 07:43:00,57.0,50.0,-100.00,North,353,5.0,9.0,76,0.00,,,0.09,0.000000,,2013-06-18 07:43:00,
2013-06-18 07:52:00,57.0,50.0,-100.00,North,353,5.0,9.0,76,0.00,,,0.09,0.000000,,2013-06-18 07:52:00,
2013-06-18 08:23:00,59.0,49.0,-100.00,ESE,112,2.0,11.0,70,0.00,,,0.09,0.000000,,2013-06-18 08:23:00,
2013-06-18 08:33:00,59.0,49.0,-100.00,ESE,112,2.0,11.0,70,0.00,,,0.09,0.000000,,2013-06-18 08:33:00,
2013-06-18 08:43:00,59.0,49.0,-100.00,ESE,112,2.0,11.0,70,0.00,,,0.09,0.000000,,2013-06-18 08:43:00,
2013-06-18 08:52:00,59.0,49.0,-100.00,ESE,112,2.0,11.0,70,0.00,,,0.09,0.000000,,2013-06-18 08:52:00,
2013-06-18 09:22:00,55.0,50.0,-100.00,ENE,76,1.0,5.0,83,0.00,,,-99.99,0.000000,,2013-06-18 09:22:00,
2013-06-18 09:34:00,55.0,50.0,-100.00,ENE,76,1.0,5.0,83,0.00,,,-99.99,0.000000,,2013-06-18 09:34:00,
2013-06-18 09:43:00,55.0,50.0,-100.00,ENE,76,1.0,5.0,83,0.00,,,-99.99,0.000000,,2013-06-18 09:43:00,
2013-06-18 09:53:00,55.0,50.0,-100.00,ENE,76,1.0,5.0,83,0.00,,,-99.99,0.000000,,2013-06-18 09:53:00,
2013-06-18 10:22:00,56.0,50.0,-100.00,NNE,15,4.0,6.0,79,0.00,,,0.07,0.000000,,2013-06-18 10:22:00,
2013-06-18 10:33:00,56.0,50.0,-100.00,NNE,15,4.0,6.0,79,0.00,,,0.07,0.000000,,2013-06-18 10:33:00,
2013-06-18 10:43:00,56.0,50.0,-100.00,NNE,15,4.0,6.0,79,0.00,,,0.07,0.000000,,2013-06-18 10:43:00,
2013-06-18 10:53:00,56.0,50.0,-100.00,NNE,15,4.0,6.0,79,0.00,,,0.07,0.000000,,2013-06-18 10:53:00,
2013-06-18 11:22:00,57.0,49.0,-100.00,NNE,23,4.0,6.0,75,0.00,,,0.03,0.000000,,2013-06-18 11:22:00,
2013-06-18 11:32:00,57.0,49.0,-100.00,NNE,23,4.0,6.0,75,0.00,,,0.03,0.000000,,2013-06-18 11:32:00,
2013-06-18 11:43:00,57.0,49.0,-100.00,NNE,23,4.0,6.0,75,0.00,,,0.03,0.000000,,2013-06-18 11:43:00,
2013-06-18 11:52:00,57.0,49.0,-100.00,NNE,23,4.0,6.0,75,0.00,,,0.03,0.000000,,2013-06-18 11:52:00,
2013-06-18 12:22:00,59.0,49.0,-100.00,NNE,31,4.0,6.0,69,-99.99,,,0.00,9.000000,,2013-06-18 12:22:00,
2013-06-18 12:52:00,59.0,49.0,-100.00,NNE,31,4.0,6.0,69,-99.99,,,0.00,9.000000,,2013-06-18 12:52:00,
2013-06-18 13:22:00,65.0,51.0,-100.00,NE,46,1.0,4.0,61,-99.99,,,0.00,130.000000,,2013-06-18 13:22:00,
2013-06-18 13:52:00,65.0,51.0,-100.00,NE,46,1.0,4.0,61,-99.99,,,0.00,130.000000,,2013-06-18 13:52:00,
2013-06-18 14:22:00,67.0,50.0,-100.00,South,177,2.0,4.0,54,0.00,,,0.00,317.000000,,2013-06-18 14:22:00,
2013-06-18 14:33:00,67.0,50.0,-100.00,South,177,2.0,4.0,54,0.00,,,0.00,317.000000,,2013-06-18 14:33:00,
2013-06-18 14:43:00,67.0,50.0,-100.00,South,177,2.0,4.0,54,0.00,,,0.00,317.000000,,2013-06-18 14:43:00,
2013-06-18 14:53:00,67.0,50.0,-100.00,South,177,2.0,4.0,54,0.00,,,0.00,317.000000,,2013-06-18 14:53:00,
2013-06-18 15:22:00,70.0,49.0,-100.00,SW,215,6.0,12.0,47,0.00,,,0.00,503.000000,,2013-06-18 15:22:00,
2013-06-18 15:33:00,70.0,49.0,-100.00,SW,215,6.0,12.0,47,0.00,,,0.00,503.000000,,2013-06-18 15:33:00,
2013-06-18 15:43:00,70.0,49.0,-100.00,SW,215,6.0,12.0,47,0.00,,,0.00,503.000000,,2013-06-18 15:43:00,
2013-06-18 15:53:00,70.0,49.0,-100.00,SW,215,6.0,12.0,47,0.00,,,0.00,503.000000,,2013-06-18 15:53:00,
2013-06-18 16:22:00,73.0,50.0,-100.00,South,177,6.0,12.0,44,0.00,,,0.00,677.000000,,2013-06-18 16:22:00,
2013-06-18 16:33:00,73.0,50.0,-100.00,South,177,6.0,12.0,44,0.00,,,0.00,677.000000,,2013-06-18 16:33:00,
2013-06-18 16:43:00,73.0,50.0,-100.00,South,177,6.0,12.0,44,0.00,,,0.00,677.000000,,2013-06-18 16:43:00,
2013-06-18 16:53:00,73.0,50.0,-100.00,South,177,6.0,12.0,44,0.00,,,0.00,677.000000,,2013-06-18 16:53:00,
2013-06-18 17:22:00,74.0,52.0,-100.00,South,178,8.0,15.0,46,0.00,,,0.00,821.000000,,2013-06-18 17:22:00,
2013-06-18 17:33:00,74.0,52.0,-100.00,South,178,8.0,15.0,46,0.00,,,0.00,821.000000,,2013-06-18 17:33:00,
2013-06-18 17:43:00,74.0,52.0,-100.00,South,178,8.0,15.0,46,0.00,,,0.00,821.000000,,2013-06-18 17:43:00,
2013-06-18 17:53:00,74.0,52.0,-100.00,South,178,8.0,15.0,46,0.00,,,0.00,821.000000,,2013-06-18 17:53:00,
2013-06-18 18:22:00,76.0,53.0,-100.00,SSE,166,6.0,16.0,45,0.00,,,0.00,919.000000,,2013-06-18 18:22:00,
2013-06-18 18:33:00,76.0,53.0,-100.00,SSE,166,6.0,16.0,45,0.00,,,0.00,919.000000,,2013-06-18 18:33:00,
2013-06-18 18:42:00,76.0,53.0,-100.00,SSE,166,6.0,16.0,45,0.00,,,0.00,919.000000,,2013-06-18 18:42:00,
2013-06-18 18:53:00,76.0,53.0,-100.00,SSE,166,6.0,16.0,45,0.00,,,0.00,919.000000,,2013-06-18 18:53:00,
2013-06-18 19:22:00,79.0,48.0,-100.00,South,174,7.0,18.0,34,0.00,,,0.00,967.000000,,2013-06-18 19:22:00,
2013-06-18 19:33:00,79.0,48.0,-100.00,South,174,7.0,18.0,34,0.00,,,0.00,967.000000,,2013-06-18 19:33:00,
2013-06-18 19:43:00,79.0,48.0,-100.00,South,174,7.0,18.0,34,0.00,,,0.00,967.000000,,2013-06-18 19:43:00,
2013-06-18 19:52:00,79.0,48.0,-100.00,South,174,7.0,18.0,34,0.00,,,0.00,967.000000,,2013-06-18 19:52:00,
2013-06-18 20:23:00,80.0,51.0,-100.00,SE,145,8.0,15.0,36,0.00,,,0.00,968.000000,,2013-06-18 20:23:00,
2013-06-18 20:33:00,80.0,51.0,-100.00,SE,145,8.0,15.0,36,0.00,,,0.00,968.000000,,2013-06-18 20:33:00,
2013-06-18 20:43:00,80.0,51.0,-100.00,SE,145,8.0,15.0,36,0.00,,,0.00,968.000000,,2013-06-18 20:43:00,
2013-06-18 20:52:00,80.0,51.0,-100.00,SE,145,8.0,15.0,36,0.00,,,0.00,968.000000,,2013-06-18 20:52:00,
2013-06-18 21:23:00,80.0,51.0,-100.00,SE,146,8.0,20.0,36,0.00,,,-99.99,899.000000,,2013-06-18 21:23:00,
2013-06-18 21:33:00,80.0,51.0,-100.00,SE,146,8.0,20.0,36,0.00,,,-99.99,899.000000,,2013-06-18 21:33:00,
2013-06-18 21:43:00,80.0,51.0,-100.00,SE,146,8.0,20.0,36,0.00,,,-99.99,899.000000,,2013-06-18 21:43:00,
2013-06-18 21:52:00,80.0,51.0,-100.00,SE,146,8.0,20.0,36,0.00,,,-99.99,899.000000,,2013-06-18 21:52:00,
2013-06-18 22:22:00,79.0,50.0,-100.00,SSE,147,10.0,18.0,37,0.00,,,0.00,674.000000,,2013-06-18 22:22:00,
2013-06-18 22:34:00,79.0,50.0,-100.00,SSE,147,10.0,18.0,37,0.00,,,0.00,674.000000,,2013-06-18 22:34:00,
2013-06-18 22:43:00,79.0,50.0,-100.00,SSE,147,10.0,18.0,37,0.00,,,0.00,674.000000,,2013-06-18 22:43:00,
2013-06-18 22:53:00,79.0,50.0,-100.00,SSE,147,10.0,18.0,37,0.00,,,0.00,674.000000,,2013-06-18 22:53:00,
2013-06-18 23:23:00,78.0,50.0,-100.00,SE,137,6.0,21.0,37,0.00,,,0.00,455.000000,,2013-06-18 23:23:00,
2013-06-18 23:36:00,78.0,50.0,-100.00,SE,137,6.0,21.0,37,0.00,,,0.00,455.000000,,2013-06-18 23:36:00,
2013-06-18 23:45:00,78.0,50.0,-100.00,SE,137,6.0,21.0,37,0.00,,,0.00,455.000000,,2013-06-18 23:45:00,
2013-06-18 23:53:00,78.0,50.0,-100.00,SE,137,6.0,21.0,37,0.00,,,0.00,455.000000,,2013-06-18 23:53:00,